sensor_id;sensor_type;location;lat;lon;timestamp;P1;durP1;ratioP1;P2;durP2;ratioP2
15228;SDS011;7717;47.792;12.076;2022-08-19T00:00:00;7.03;;;6.47;;
15228;SDS011;7717;47.792;12.076;2022-08-19T00:02:26;7.43;;;6.53;;
15228;SDS011;7717;47.792;12.076;2022-08-19T00:04:51;7.80;;;6.93;;
15228;SDS011;7717;47.792;12.076;2022-08-19T00:07:20;7.07;;;6.47;;
15228;SDS011;7717;47.792;12.076;2022-08-19T00:09:45;7.00;;;6.17;;
15228;SDS011;7717;47.792;12.076;2022-08-19T00:12:11;6.80;;;6.23;;
15228;SDS011;7717;47.792;12.076;2022-08-19T00:14:36;7.37;;;6.67;;
15228;SDS011;7717;47.792;12.076;2022-08-19T00:17:04;7.67;;;6.97;;
15228;SDS011;7717;47.792;12.076;2022-08-19T00:19:29;7.03;;;5.80;;
15228;SDS011;7717;47.792;12.076;2022-08-19T00:21:54;8.13;;;7.33;;
15228;SDS011;7717;47.792;12.076;2022-08-19T00:24:21;7.57;;;6.97;;
15228;SDS011;7717;47.792;12.076;2022-08-19T00:26:46;6.73;;;6.13;;
15228;SDS011;7717;47.792;12.076;2022-08-19T00:29:13;7.70;;;6.90;;
15228;SDS011;7717;47.792;12.076;2022-08-19T00:31:39;8.60;;;6.80;;
15228;SDS011;7717;47.792;12.076;2022-08-19T00:34:06;6.53;;;5.87;;
15228;SDS011;7717;47.792;12.076;2022-08-19T00:36:32;8.30;;;7.47;;
15228;SDS011;7717;47.792;12.076;2022-08-19T00:38:58;7.47;;;6.77;;
15228;SDS011;7717;47.792;12.076;2022-08-19T00:41:24;7.60;;;6.90;;
15228;SDS011;7717;47.792;12.076;2022-08-19T00:43:59;6.17;;;5.67;;
15228;SDS011;7717;47.792;12.076;2022-08-19T00:46:25;7.13;;;6.43;;
15228;SDS011;7717;47.792;12.076;2022-08-19T00:48:50;7.07;;;6.43;;
15228;SDS011;7717;47.792;12.076;2022-08-19T00:51:16;6.97;;;6.37;;
15228;SDS011;7717;47.792;12.076;2022-08-19T00:53:41;6.60;;;6.07;;
15228;SDS011;7717;47.792;12.076;2022-08-19T00:56:07;6.73;;;6.23;;
15228;SDS011;7717;47.792;12.076;2022-08-19T00:58:33;7.23;;;6.53;;
15228;SDS011;7717;47.792;12.076;2022-08-19T01:01:00;8.07;;;7.37;;
15228;SDS011;7717;47.792;12.076;2022-08-19T01:03:25;7.87;;;7.07;;
15228;SDS011;7717;47.792;12.076;2022-08-19T01:05:51;8.70;;;7.70;;
15228;SDS011;7717;47.792;12.076;2022-08-19T01:08:17;8.10;;;6.47;;
15228;SDS011;7717;47.792;12.076;2022-08-19T01:10:45;7.30;;;6.67;;
15228;SDS011;7717;47.792;12.076;2022-08-19T01:13:11;6.57;;;5.97;;
15228;SDS011;7717;47.792;12.076;2022-08-19T01:15:40;6.27;;;5.73;;
15228;SDS011;7717;47.792;12.076;2022-08-19T01:18:08;5.87;;;5.47;;
15228;SDS011;7717;47.792;12.076;2022-08-19T01:20:34;5.97;;;5.53;;
15228;SDS011;7717;47.792;12.076;2022-08-19T01:22:59;6.13;;;5.53;;
15228;SDS011;7717;47.792;12.076;2022-08-19T01:25:32;5.53;;;5.03;;
15228;SDS011;7717;47.792;12.076;2022-08-19T01:27:59;6.20;;;5.67;;
15228;SDS011;7717;47.792;12.076;2022-08-19T01:30:28;5.80;;;5.20;;
15228;SDS011;7717;47.792;12.076;2022-08-19T01:32:54;5.77;;;5.07;;
15228;SDS011;7717;47.792;12.076;2022-08-19T01:35:19;5.97;;;5.47;;
15228;SDS011;7717;47.792;12.076;2022-08-19T01:37:46;5.50;;;5.10;;
15228;SDS011;7717;47.792;12.076;2022-08-19T01:40:12;5.70;;;5.20;;
15228;SDS011;7717;47.792;12.076;2022-08-19T01:42:37;6.27;;;5.67;;
15228;SDS011;7717;47.792;12.076;2022-08-19T01:45:03;5.90;;;5.30;;
15228;SDS011;7717;47.792;12.076;2022-08-19T01:47:29;5.47;;;4.90;;
15228;SDS011;7717;47.792;12.076;2022-08-19T01:49:54;6.60;;;5.30;;
15228;SDS011;7717;47.792;12.076;2022-08-19T01:52:19;6.20;;;5.70;;
15228;SDS011;7717;47.792;12.076;2022-08-19T01:54:44;5.80;;;5.30;;
15228;SDS011;7717;47.792;12.076;2022-08-19T01:57:10;5.63;;;4.87;;
15228;SDS011;7717;47.792;12.076;2022-08-19T01:59:37;4.20;;;3.90;;
15228;SDS011;7717;47.792;12.076;2022-08-19T02:02:03;3.57;;;3.30;;
15228;SDS011;7717;47.792;12.076;2022-08-19T02:04:32;2.50;;;2.40;;
15228;SDS011;7717;47.792;12.076;2022-08-19T02:06:59;2.20;;;2.00;;
15228;SDS011;7717;47.792;12.076;2022-08-19T02:09:24;1.83;;;1.70;;
15228;SDS011;7717;47.792;12.076;2022-08-19T02:11:49;1.50;;;1.40;;
15228;SDS011;7717;47.792;12.076;2022-08-19T02:14:14;1.53;;;1.20;;
15228;SDS011;7717;47.792;12.076;2022-08-19T02:16:40;1.30;;;1.20;;
15228;SDS011;7717;47.792;12.076;2022-08-19T02:19:05;1.60;;;1.50;;
15228;SDS011;7717;47.792;12.076;2022-08-19T02:21:31;1.60;;;1.50;;
15228;SDS011;7717;47.792;12.076;2022-08-19T02:23:56;1.40;;;1.30;;
15228;SDS011;7717;47.792;12.076;2022-08-19T02:26:22;1.23;;;1.10;;
15228;SDS011;7717;47.792;12.076;2022-08-19T02:28:48;1.20;;;1.10;;
15228;SDS011;7717;47.792;12.076;2022-08-19T02:31:15;0.97;;;0.97;;
15228;SDS011;7717;47.792;12.076;2022-08-19T02:33:43;1.00;;;1.00;;
15228;SDS011;7717;47.792;12.076;2022-08-19T02:36:11;1.10;;;1.10;;
15228;SDS011;7717;47.792;12.076;2022-08-19T02:38:37;1.07;;;1.07;;
15228;SDS011;7717;47.792;12.076;2022-08-19T02:41:04;2.80;;;1.40;;
15228;SDS011;7717;47.792;12.076;2022-08-19T02:43:30;1.03;;;1.00;;
15228;SDS011;7717;47.792;12.076;2022-08-19T02:45:56;1.20;;;1.17;;
15228;SDS011;7717;47.792;12.076;2022-08-19T02:48:22;1.43;;;1.10;;
15228;SDS011;7717;47.792;12.076;2022-08-19T02:50:48;0.90;;;0.90;;
15228;SDS011;7717;47.792;12.076;2022-08-19T02:53:19;1.43;;;1.20;;
15228;SDS011;7717;47.792;12.076;2022-08-19T02:55:47;1.10;;;1.00;;
15228;SDS011;7717;47.792;12.076;2022-08-19T02:58:14;1.30;;;1.20;;
15228;SDS011;7717;47.792;12.076;2022-08-19T03:00:52;2.70;;;2.50;;
15228;SDS011;7717;47.792;12.076;2022-08-19T03:03:23;3.10;;;2.90;;
15228;SDS011;7717;47.792;12.076;2022-08-19T03:05:49;3.53;;;3.23;;
15228;SDS011;7717;47.792;12.076;2022-08-19T03:08:15;2.93;;;2.73;;
15228;SDS011;7717;47.792;12.076;2022-08-19T03:10:46;3.30;;;3.00;;
15228;SDS011;7717;47.792;12.076;2022-08-19T03:13:13;3.57;;;3.27;;
15228;SDS011;7717;47.792;12.076;2022-08-19T03:15:40;3.90;;;3.60;;
15228;SDS011;7717;47.792;12.076;2022-08-19T03:18:06;4.17;;;3.77;;
15228;SDS011;7717;47.792;12.076;2022-08-19T03:20:31;3.87;;;3.57;;
15228;SDS011;7717;47.792;12.076;2022-08-19T03:22:56;4.83;;;4.50;;
15228;SDS011;7717;47.792;12.076;2022-08-19T03:25:22;5.43;;;4.87;;
15228;SDS011;7717;47.792;12.076;2022-08-19T03:27:48;4.27;;;3.97;;
15228;SDS011;7717;47.792;12.076;2022-08-19T03:30:13;4.27;;;3.97;;
15228;SDS011;7717;47.792;12.076;2022-08-19T03:32:39;4.10;;;3.80;;
15228;SDS011;7717;47.792;12.076;2022-08-19T03:35:08;4.93;;;4.50;;
15228;SDS011;7717;47.792;12.076;2022-08-19T03:37:46;5.90;;;5.40;;
15228;SDS011;7717;47.792;12.076;2022-08-19T03:40:11;6.87;;;6.27;;
15228;SDS011;7717;47.792;12.076;2022-08-19T03:42:36;6.67;;;6.07;;
15228;SDS011;7717;47.792;12.076;2022-08-19T03:45:02;7.53;;;6.83;;
15228;SDS011;7717;47.792;12.076;2022-08-19T03:47:30;7.07;;;6.37;;
15228;SDS011;7717;47.792;12.076;2022-08-19T03:49:56;7.10;;;6.37;;
15228;SDS011;7717;47.792;12.076;2022-08-19T03:52:22;7.60;;;6.90;;
15228;SDS011;7717;47.792;12.076;2022-08-19T03:54:48;6.93;;;6.23;;
15228;SDS011;7717;47.792;12.076;2022-08-19T03:57:14;8.10;;;7.40;;
15228;SDS011;7717;47.792;12.076;2022-08-19T03:59:39;7.73;;;7.13;;
15228;SDS011;7717;47.792;12.076;2022-08-19T04:02:06;8.30;;;7.50;;
15228;SDS011;7717;47.792;12.076;2022-08-19T04:04:33;8.33;;;7.13;;
15228;SDS011;7717;47.792;12.076;2022-08-19T04:06:59;8.13;;;7.27;;
15228;SDS011;7717;47.792;12.076;2022-08-19T04:09:25;8.30;;;6.97;;
15228;SDS011;7717;47.792;12.076;2022-08-19T04:11:51;7.40;;;6.70;;
15228;SDS011;7717;47.792;12.076;2022-08-19T04:14:20;7.13;;;6.53;;
15228;SDS011;7717;47.792;12.076;2022-08-19T04:16:46;7.43;;;6.83;;
15228;SDS011;7717;47.792;12.076;2022-08-19T04:19:14;7.53;;;6.83;;
15228;SDS011;7717;47.792;12.076;2022-08-19T04:21:40;10.10;;;7.53;;
15228;SDS011;7717;47.792;12.076;2022-08-19T04:24:05;8.33;;;6.30;;
15228;SDS011;7717;47.792;12.076;2022-08-19T04:26:32;6.87;;;6.27;;
15228;SDS011;7717;47.792;12.076;2022-08-19T04:28:58;7.53;;;6.67;;
15228;SDS011;7717;47.792;12.076;2022-08-19T04:31:25;6.67;;;6.07;;
15228;SDS011;7717;47.792;12.076;2022-08-19T04:33:54;8.60;;;7.87;;
15228;SDS011;7717;47.792;12.076;2022-08-19T04:36:22;8.50;;;7.70;;
15228;SDS011;7717;47.792;12.076;2022-08-19T04:38:48;7.23;;;6.63;;
15228;SDS011;7717;47.792;12.076;2022-08-19T04:41:14;7.77;;;7.13;;
15228;SDS011;7717;47.792;12.076;2022-08-19T04:43:58;8.07;;;7.23;;
15228;SDS011;7717;47.792;12.076;2022-08-19T04:46:23;7.53;;;6.93;;
15228;SDS011;7717;47.792;12.076;2022-08-19T04:48:49;8.77;;;7.80;;
15228;SDS011;7717;47.792;12.076;2022-08-19T04:51:14;8.23;;;7.53;;
15228;SDS011;7717;47.792;12.076;2022-08-19T04:53:40;9.07;;;6.70;;
15228;SDS011;7717;47.792;12.076;2022-08-19T04:56:07;7.50;;;6.60;;
15228;SDS011;7717;47.792;12.076;2022-08-19T04:58:33;7.50;;;6.80;;
15228;SDS011;7717;47.792;12.076;2022-08-19T05:00:59;7.47;;;6.77;;
15228;SDS011;7717;47.792;12.076;2022-08-19T05:03:25;7.67;;;6.90;;
15228;SDS011;7717;47.792;12.076;2022-08-19T05:05:50;7.03;;;6.30;;
15228;SDS011;7717;47.792;12.076;2022-08-19T05:08:17;6.63;;;6.10;;
15228;SDS011;7717;47.792;12.076;2022-08-19T05:10:49;6.53;;;5.93;;
15228;SDS011;7717;47.792;12.076;2022-08-19T05:13:15;6.40;;;5.90;;
15228;SDS011;7717;47.792;12.076;2022-08-19T05:15:42;6.43;;;5.93;;
15228;SDS011;7717;47.792;12.076;2022-08-19T05:18:07;6.40;;;5.90;;
15228;SDS011;7717;47.792;12.076;2022-08-19T05:20:51;7.00;;;6.40;;
15228;SDS011;7717;47.792;12.076;2022-08-19T05:23:35;6.93;;;6.33;;
15228;SDS011;7717;47.792;12.076;2022-08-19T05:26:00;8.17;;;6.80;;
15228;SDS011;7717;47.792;12.076;2022-08-19T05:28:25;7.33;;;6.63;;
15228;SDS011;7717;47.792;12.076;2022-08-19T05:30:51;8.83;;;7.00;;
15228;SDS011;7717;47.792;12.076;2022-08-19T05:33:17;6.73;;;6.13;;
15228;SDS011;7717;47.792;12.076;2022-08-19T05:35:42;9.10;;;7.17;;
15228;SDS011;7717;47.792;12.076;2022-08-19T05:38:09;7.33;;;6.73;;
15228;SDS011;7717;47.792;12.076;2022-08-19T05:40:35;7.70;;;7.00;;
15228;SDS011;7717;47.792;12.076;2022-08-19T05:43:01;7.10;;;6.47;;
15228;SDS011;7717;47.792;12.076;2022-08-19T05:45:27;8.20;;;7.10;;
15228;SDS011;7717;47.792;12.076;2022-08-19T05:47:52;8.50;;;7.03;;
15228;SDS011;7717;47.792;12.076;2022-08-19T05:50:18;7.73;;;7.10;;
15228;SDS011;7717;47.792;12.076;2022-08-19T05:52:43;8.60;;;7.67;;
15228;SDS011;7717;47.792;12.076;2022-08-19T05:55:08;8.53;;;7.83;;
15228;SDS011;7717;47.792;12.076;2022-08-19T05:57:34;8.80;;;8.00;;
15228;SDS011;7717;47.792;12.076;2022-08-19T05:59:59;9.80;;;8.53;;
15228;SDS011;7717;47.792;12.076;2022-08-19T06:02:27;9.90;;;9.03;;
15228;SDS011;7717;47.792;12.076;2022-08-19T06:04:52;10.67;;;9.67;;
15228;SDS011;7717;47.792;12.076;2022-08-19T06:07:18;9.83;;;8.87;;
15228;SDS011;7717;47.792;12.076;2022-08-19T06:09:44;10.07;;;9.03;;
15228;SDS011;7717;47.792;12.076;2022-08-19T06:12:10;9.90;;;9.00;;
15228;SDS011;7717;47.792;12.076;2022-08-19T06:14:35;9.90;;;8.90;;
15228;SDS011;7717;47.792;12.076;2022-08-19T06:17:01;11.77;;;9.47;;
15228;SDS011;7717;47.792;12.076;2022-08-19T06:19:27;10.17;;;8.53;;
15228;SDS011;7717;47.792;12.076;2022-08-19T06:21:54;11.30;;;8.17;;
15228;SDS011;7717;47.792;12.076;2022-08-19T06:24:21;9.57;;;8.07;;
15228;SDS011;7717;47.792;12.076;2022-08-19T06:26:48;8.97;;;8.07;;
15228;SDS011;7717;47.792;12.076;2022-08-19T06:29:15;9.63;;;8.63;;
15228;SDS011;7717;47.792;12.076;2022-08-19T06:31:45;9.40;;;8.50;;
15228;SDS011;7717;47.792;12.076;2022-08-19T06:34:10;9.53;;;8.53;;
15228;SDS011;7717;47.792;12.076;2022-08-19T06:36:38;9.07;;;8.27;;
15228;SDS011;7717;47.792;12.076;2022-08-19T06:39:05;10.53;;;9.30;;
15228;SDS011;7717;47.792;12.076;2022-08-19T06:41:33;9.83;;;8.83;;
15228;SDS011;7717;47.792;12.076;2022-08-19T06:43:59;10.23;;;9.23;;
15228;SDS011;7717;47.792;12.076;2022-08-19T06:46:24;9.30;;;8.40;;
15228;SDS011;7717;47.792;12.076;2022-08-19T06:48:51;9.53;;;8.27;;
15228;SDS011;7717;47.792;12.076;2022-08-19T06:51:18;8.47;;;7.67;;
15228;SDS011;7717;47.792;12.076;2022-08-19T06:53:50;7.77;;;7.00;;
15228;SDS011;7717;47.792;12.076;2022-08-19T06:56:17;8.47;;;7.77;;
15228;SDS011;7717;47.792;12.076;2022-08-19T06:58:42;8.30;;;7.50;;
15228;SDS011;7717;47.792;12.076;2022-08-19T07:01:07;7.50;;;6.80;;
15228;SDS011;7717;47.792;12.076;2022-08-19T07:03:34;7.97;;;7.17;;
15228;SDS011;7717;47.792;12.076;2022-08-19T07:06:04;8.60;;;7.00;;
15228;SDS011;7717;47.792;12.076;2022-08-19T07:08:29;7.20;;;6.50;;
15228;SDS011;7717;47.792;12.076;2022-08-19T07:10:54;7.70;;;6.60;;
15228;SDS011;7717;47.792;12.076;2022-08-19T07:13:21;8.40;;;6.67;;
15228;SDS011;7717;47.792;12.076;2022-08-19T07:15:47;7.53;;;6.87;;
15228;SDS011;7717;47.792;12.076;2022-08-19T07:18:12;7.17;;;6.57;;
15228;SDS011;7717;47.792;12.076;2022-08-19T07:20:38;7.93;;;6.63;;
15228;SDS011;7717;47.792;12.076;2022-08-19T07:23:04;6.43;;;5.93;;
15228;SDS011;7717;47.792;12.076;2022-08-19T07:25:29;6.80;;;6.10;;
15228;SDS011;7717;47.792;12.076;2022-08-19T07:27:54;6.33;;;5.73;;
15228;SDS011;7717;47.792;12.076;2022-08-19T07:30:20;6.47;;;5.97;;
15228;SDS011;7717;47.792;12.076;2022-08-19T07:32:45;6.40;;;5.80;;
15228;SDS011;7717;47.792;12.076;2022-08-19T07:35:10;5.83;;;5.33;;
15228;SDS011;7717;47.792;12.076;2022-08-19T07:37:36;5.30;;;4.90;;
15228;SDS011;7717;47.792;12.076;2022-08-19T07:40:03;5.87;;;5.27;;
15228;SDS011;7717;47.792;12.076;2022-08-19T07:42:28;5.87;;;5.27;;
15228;SDS011;7717;47.792;12.076;2022-08-19T07:44:54;5.37;;;4.87;;
15228;SDS011;7717;47.792;12.076;2022-08-19T07:47:19;5.30;;;4.87;;
15228;SDS011;7717;47.792;12.076;2022-08-19T07:49:45;5.73;;;5.23;;
15228;SDS011;7717;47.792;12.076;2022-08-19T07:52:10;4.77;;;4.37;;
15228;SDS011;7717;47.792;12.076;2022-08-19T07:54:36;5.23;;;4.80;;
15228;SDS011;7717;47.792;12.076;2022-08-19T07:57:02;5.30;;;4.80;;
15228;SDS011;7717;47.792;12.076;2022-08-19T07:59:28;6.03;;;4.43;;
15228;SDS011;7717;47.792;12.076;2022-08-19T08:01:54;4.77;;;4.17;;
15228;SDS011;7717;47.792;12.076;2022-08-19T08:04:19;4.90;;;4.50;;
15228;SDS011;7717;47.792;12.076;2022-08-19T08:07:04;4.83;;;4.43;;
15228;SDS011;7717;47.792;12.076;2022-08-19T08:09:48;4.60;;;4.20;;
15228;SDS011;7717;47.792;12.076;2022-08-19T08:12:24;5.30;;;4.67;;
15228;SDS011;7717;47.792;12.076;2022-08-19T08:14:53;5.73;;;5.23;;
15228;SDS011;7717;47.792;12.076;2022-08-19T08:17:20;5.93;;;5.00;;
15228;SDS011;7717;47.792;12.076;2022-08-19T08:19:45;5.30;;;4.80;;
15228;SDS011;7717;47.792;12.076;2022-08-19T08:22:13;4.90;;;4.40;;
15228;SDS011;7717;47.792;12.076;2022-08-19T08:25:06;5.37;;;4.50;;
15228;SDS011;7717;47.792;12.076;2022-08-19T08:27:34;4.60;;;4.20;;
15228;SDS011;7717;47.792;12.076;2022-08-19T08:30:00;4.53;;;4.23;;
15228;SDS011;7717;47.792;12.076;2022-08-19T08:32:25;4.00;;;3.70;;
15228;SDS011;7717;47.792;12.076;2022-08-19T08:34:50;4.40;;;4.00;;
15228;SDS011;7717;47.792;12.076;2022-08-19T08:37:16;4.40;;;4.10;;
15228;SDS011;7717;47.792;12.076;2022-08-19T08:39:42;4.93;;;4.37;;
15228;SDS011;7717;47.792;12.076;2022-08-19T08:42:13;5.23;;;4.27;;
15228;SDS011;7717;47.792;12.076;2022-08-19T08:47:05;4.87;;;4.40;;
15228;SDS011;7717;47.792;12.076;2022-08-19T08:49:43;4.63;;;4.23;;
15228;SDS011;7717;47.792;12.076;2022-08-19T08:52:10;4.70;;;4.30;;
15228;SDS011;7717;47.792;12.076;2022-08-19T08:54:40;4.60;;;4.20;;
15228;SDS011;7717;47.792;12.076;2022-08-19T08:57:07;4.85;;;4.45;;
15228;SDS011;7717;47.792;12.076;2022-08-19T08:59:38;4.82;;;4.47;;
15228;SDS011;7717;47.792;12.076;2022-08-19T09:02:04;5.68;;;5.10;;
15228;SDS011;7717;47.792;12.076;2022-08-19T09:04:29;5.53;;;4.90;;
15228;SDS011;7717;47.792;12.076;2022-08-19T09:07:09;5.40;;;5.00;;
15228;SDS011;7717;47.792;12.076;2022-08-19T09:09:47;5.53;;;5.03;;
15228;SDS011;7717;47.792;12.076;2022-08-19T09:14:41;5.45;;;5.00;;
15228;SDS011;7717;47.792;12.076;2022-08-19T09:17:10;5.20;;;4.80;;
15228;SDS011;7717;47.792;12.076;2022-08-19T09:19:46;4.45;;;4.10;;
15228;SDS011;7717;47.792;12.076;2022-08-19T09:22:13;4.10;;;3.80;;
15228;SDS011;7717;47.792;12.076;2022-08-19T09:24:38;4.18;;;3.88;;
15228;SDS011;7717;47.792;12.076;2022-08-19T09:27:04;4.03;;;3.72;;
15228;SDS011;7717;47.792;12.076;2022-08-19T09:29:29;3.85;;;3.60;;
15228;SDS011;7717;47.792;12.076;2022-08-19T09:31:55;4.97;;;4.57;;
15228;SDS011;7717;47.792;12.076;2022-08-19T09:34:20;4.60;;;4.20;;
15228;SDS011;7717;47.792;12.076;2022-08-19T09:36:46;4.25;;;3.95;;
15228;SDS011;7717;47.792;12.076;2022-08-19T09:39:11;4.10;;;3.80;;
15228;SDS011;7717;47.792;12.076;2022-08-19T09:41:37;4.03;;;3.72;;
15228;SDS011;7717;47.792;12.076;2022-08-19T09:44:02;3.78;;;3.58;;
15228;SDS011;7717;47.792;12.076;2022-08-19T09:46:28;3.90;;;3.60;;
15228;SDS011;7717;47.792;12.076;2022-08-19T09:48:56;4.80;;;4.50;;
15228;SDS011;7717;47.792;12.076;2022-08-19T09:51:24;4.28;;;3.97;;
15228;SDS011;7717;47.792;12.076;2022-08-19T09:53:49;3.95;;;3.65;;
15228;SDS011;7717;47.792;12.076;2022-08-19T09:56:16;3.55;;;3.35;;
15228;SDS011;7717;47.792;12.076;2022-08-19T09:58:41;3.80;;;3.50;;
15228;SDS011;7717;47.792;12.076;2022-08-19T10:01:07;3.20;;;3.00;;
15228;SDS011;7717;47.792;12.076;2022-08-19T10:03:34;4.93;;;4.53;;
15228;SDS011;7717;47.792;12.076;2022-08-19T10:06:00;4.25;;;3.95;;
15228;SDS011;7717;47.792;12.076;2022-08-19T10:08:26;3.78;;;3.47;;
15228;SDS011;7717;47.792;12.076;2022-08-19T10:10:52;4.30;;;3.90;;
15228;SDS011;7717;47.792;12.076;2022-08-19T10:13:18;3.40;;;3.20;;
15228;SDS011;7717;47.792;12.076;2022-08-19T10:15:47;3.20;;;2.97;;
15228;SDS011;7717;47.792;12.076;2022-08-19T10:18:15;3.17;;;2.88;;
15228;SDS011;7717;47.792;12.076;2022-08-19T10:20:42;3.20;;;3.00;;
15228;SDS011;7717;47.792;12.076;2022-08-19T10:23:08;3.60;;;3.25;;
15228;SDS011;7717;47.792;12.076;2022-08-19T10:25:34;3.60;;;3.30;;
15228;SDS011;7717;47.792;12.076;2022-08-19T10:27:59;3.40;;;3.20;;
15228;SDS011;7717;47.792;12.076;2022-08-19T10:30:25;4.78;;;3.45;;
15228;SDS011;7717;47.792;12.076;2022-08-19T10:32:50;3.72;;;3.53;;
15228;SDS011;7717;47.792;12.076;2022-08-19T10:35:15;3.22;;;3.03;;
15228;SDS011;7717;47.792;12.076;2022-08-19T10:37:42;3.80;;;3.50;;
15228;SDS011;7717;47.792;12.076;2022-08-19T10:40:07;3.60;;;3.30;;
15228;SDS011;7717;47.792;12.076;2022-08-19T10:42:36;3.40;;;3.20;;
15228;SDS011;7717;47.792;12.076;2022-08-19T10:45:01;3.60;;;3.40;;
15228;SDS011;7717;47.792;12.076;2022-08-19T10:47:26;3.95;;;3.65;;
15228;SDS011;7717;47.792;12.076;2022-08-19T10:49:52;3.90;;;3.60;;
15228;SDS011;7717;47.792;12.076;2022-08-19T10:52:36;3.50;;;3.30;;
15228;SDS011;7717;47.792;12.076;2022-08-19T10:55:05;5.55;;;3.38;;
15228;SDS011;7717;47.792;12.076;2022-08-19T10:57:49;3.30;;;3.10;;
15228;SDS011;7717;47.792;12.076;2022-08-19T11:00:14;3.88;;;3.58;;
15228;SDS011;7717;47.792;12.076;2022-08-19T11:02:40;4.00;;;3.72;;
15228;SDS011;7717;47.792;12.076;2022-08-19T11:05:06;3.42;;;3.22;;
15228;SDS011;7717;47.792;12.076;2022-08-19T11:07:32;3.13;;;2.92;;
15228;SDS011;7717;47.792;12.076;2022-08-19T11:09:57;4.45;;;4.15;;
15228;SDS011;7717;47.792;12.076;2022-08-19T11:12:22;4.00;;;3.70;;
15228;SDS011;7717;47.792;12.076;2022-08-19T11:14:49;5.35;;;4.88;;
15228;SDS011;7717;47.792;12.076;2022-08-19T11:17:15;5.18;;;4.65;;
15228;SDS011;7717;47.792;12.076;2022-08-19T11:19:40;3.97;;;3.67;;
15228;SDS011;7717;47.792;12.076;2022-08-19T11:22:07;4.25;;;3.85;;
15228;SDS011;7717;47.792;12.076;2022-08-19T11:24:34;3.97;;;3.78;;
15228;SDS011;7717;47.792;12.076;2022-08-19T11:27:01;4.65;;;4.35;;
15228;SDS011;7717;47.792;12.076;2022-08-19T11:29:27;4.65;;;4.30;;
15228;SDS011;7717;47.792;12.076;2022-08-19T11:31:53;4.90;;;4.50;;
15228;SDS011;7717;47.792;12.076;2022-08-19T11:34:23;5.68;;;5.18;;
15228;SDS011;7717;47.792;12.076;2022-08-19T11:36:49;5.07;;;4.68;;
15228;SDS011;7717;47.792;12.076;2022-08-19T11:39:16;4.72;;;4.32;;
15228;SDS011;7717;47.792;12.076;2022-08-19T11:41:44;5.40;;;4.90;;
15228;SDS011;7717;47.792;12.076;2022-08-19T11:44:09;4.68;;;3.90;;
15228;SDS011;7717;47.792;12.076;2022-08-19T11:46:35;4.38;;;3.97;;
15228;SDS011;7717;47.792;12.076;2022-08-19T11:49:01;4.10;;;3.80;;
15228;SDS011;7717;47.792;12.076;2022-08-19T11:51:28;3.97;;;3.67;;
15228;SDS011;7717;47.792;12.076;2022-08-19T11:53:54;3.28;;;3.08;;
15228;SDS011;7717;47.792;12.076;2022-08-19T11:56:21;3.50;;;3.30;;
15228;SDS011;7717;47.792;12.076;2022-08-19T11:58:46;3.78;;;3.50;;
15228;SDS011;7717;47.792;12.076;2022-08-19T12:01:13;3.00;;;2.80;;
15228;SDS011;7717;47.792;12.076;2022-08-19T12:03:41;3.28;;;2.83;;
15228;SDS011;7717;47.792;12.076;2022-08-19T12:06:08;3.10;;;2.90;;
15228;SDS011;7717;47.792;12.076;2022-08-19T12:08:33;2.90;;;2.70;;
15228;SDS011;7717;47.792;12.076;2022-08-19T12:10:59;3.03;;;2.83;;
15228;SDS011;7717;47.792;12.076;2022-08-19T12:13:26;3.20;;;3.00;;
15228;SDS011;7717;47.792;12.076;2022-08-19T12:15:52;3.05;;;2.85;;
15228;SDS011;7717;47.792;12.076;2022-08-19T12:18:18;3.00;;;2.80;;
15228;SDS011;7717;47.792;12.076;2022-08-19T12:20:44;3.00;;;2.80;;
15228;SDS011;7717;47.792;12.076;2022-08-19T12:23:11;3.50;;;2.97;;
15228;SDS011;7717;47.792;12.076;2022-08-19T12:25:37;2.88;;;2.67;;
15228;SDS011;7717;47.792;12.076;2022-08-19T12:28:03;2.95;;;2.80;;
15228;SDS011;7717;47.792;12.076;2022-08-19T12:30:29;2.47;;;2.38;;
15228;SDS011;7717;47.792;12.076;2022-08-19T12:32:54;2.67;;;2.42;;
15228;SDS011;7717;47.792;12.076;2022-08-19T12:35:20;2.75;;;2.55;;
15228;SDS011;7717;47.792;12.076;2022-08-19T12:37:46;2.45;;;2.35;;
15228;SDS011;7717;47.792;12.076;2022-08-19T12:40:11;2.90;;;2.70;;
15228;SDS011;7717;47.792;12.076;2022-08-19T12:42:37;3.47;;;3.17;;
15228;SDS011;7717;47.792;12.076;2022-08-19T12:45:06;2.75;;;2.55;;
15228;SDS011;7717;47.792;12.076;2022-08-19T12:47:32;2.95;;;2.75;;
15228;SDS011;7717;47.792;12.076;2022-08-19T12:49:57;2.67;;;2.47;;
15228;SDS011;7717;47.792;12.076;2022-08-19T12:52:23;3.00;;;2.80;;
15228;SDS011;7717;47.792;12.076;2022-08-19T12:54:50;2.40;;;2.30;;
15228;SDS011;7717;47.792;12.076;2022-08-19T12:57:16;2.55;;;2.35;;
15228;SDS011;7717;47.792;12.076;2022-08-19T12:59:41;2.33;;;2.22;;
15228;SDS011;7717;47.792;12.076;2022-08-19T13:02:07;2.20;;;2.10;;
15228;SDS011;7717;47.792;12.076;2022-08-19T13:04:33;3.05;;;2.45;;
15228;SDS011;7717;47.792;12.076;2022-08-19T13:07:05;2.25;;;2.10;;
15228;SDS011;7717;47.792;12.076;2022-08-19T13:09:31;2.58;;;2.38;;
15228;SDS011;7717;47.792;12.076;2022-08-19T13:11:56;2.20;;;2.03;;
15228;SDS011;7717;47.792;12.076;2022-08-19T13:14:21;2.28;;;2.05;;
15228;SDS011;7717;47.792;12.076;2022-08-19T13:16:47;3.72;;;2.10;;
15228;SDS011;7717;47.792;12.076;2022-08-19T13:19:12;1.73;;;1.63;;
15228;SDS011;7717;47.792;12.076;2022-08-19T13:21:38;2.30;;;2.20;;
15228;SDS011;7717;47.792;12.076;2022-08-19T13:24:03;2.20;;;2.10;;
15228;SDS011;7717;47.792;12.076;2022-08-19T13:26:28;2.28;;;2.08;;
15228;SDS011;7717;47.792;12.076;2022-08-19T13:28:54;2.30;;;2.20;;
15228;SDS011;7717;47.792;12.076;2022-08-19T13:31:39;2.30;;;2.10;;
15228;SDS011;7717;47.792;12.076;2022-08-19T13:34:29;2.30;;;2.20;;
15228;SDS011;7717;47.792;12.076;2022-08-19T13:36:54;2.60;;;2.40;;
15228;SDS011;7717;47.792;12.076;2022-08-19T13:39:20;2.20;;;2.10;;
15228;SDS011;7717;47.792;12.076;2022-08-19T13:41:45;2.05;;;1.95;;
15228;SDS011;7717;47.792;12.076;2022-08-19T13:44:18;2.60;;;2.40;;
15228;SDS011;7717;47.792;12.076;2022-08-19T13:46:44;2.15;;;2.05;;
15228;SDS011;7717;47.792;12.076;2022-08-19T13:49:10;2.13;;;2.03;;
15228;SDS011;7717;47.792;12.076;2022-08-19T13:51:37;2.40;;;2.20;;
15228;SDS011;7717;47.792;12.076;2022-08-19T13:54:04;1.98;;;1.88;;
15228;SDS011;7717;47.792;12.076;2022-08-19T13:56:29;2.67;;;2.13;;
15228;SDS011;7717;47.792;12.076;2022-08-19T13:58:54;2.03;;;1.92;;
15228;SDS011;7717;47.792;12.076;2022-08-19T14:01:21;2.13;;;1.98;;
15228;SDS011;7717;47.792;12.076;2022-08-19T14:03:46;2.13;;;2.03;;
15228;SDS011;7717;47.792;12.076;2022-08-19T14:06:11;1.88;;;1.77;;
15228;SDS011;7717;47.792;12.076;2022-08-19T14:08:37;1.83;;;1.73;;
15228;SDS011;7717;47.792;12.076;2022-08-19T14:11:05;1.80;;;1.70;;
15228;SDS011;7717;47.792;12.076;2022-08-19T14:13:30;1.90;;;1.80;;
15228;SDS011;7717;47.792;12.076;2022-08-19T14:15:57;2.13;;;2.03;;
15228;SDS011;7717;47.792;12.076;2022-08-19T14:18:23;1.95;;;1.85;;
15228;SDS011;7717;47.792;12.076;2022-08-19T14:20:49;2.42;;;2.22;;
15228;SDS011;7717;47.792;12.076;2022-08-19T14:23:15;2.25;;;2.15;;
15228;SDS011;7717;47.792;12.076;2022-08-19T14:25:40;2.25;;;2.05;;
15228;SDS011;7717;47.792;12.076;2022-08-19T14:28:06;2.38;;;2.17;;
15228;SDS011;7717;47.792;12.076;2022-08-19T14:30:33;2.15;;;1.95;;
15228;SDS011;7717;47.792;12.076;2022-08-19T14:32:59;2.00;;;1.90;;
15228;SDS011;7717;47.792;12.076;2022-08-19T14:35:25;2.40;;;2.20;;
15228;SDS011;7717;47.792;12.076;2022-08-19T14:37:51;2.40;;;2.20;;
15228;SDS011;7717;47.792;12.076;2022-08-19T14:40:21;2.13;;;2.03;;
15228;SDS011;7717;47.792;12.076;2022-08-19T14:42:48;2.00;;;1.90;;
15228;SDS011;7717;47.792;12.076;2022-08-19T14:45:13;1.58;;;1.48;;
15228;SDS011;7717;47.792;12.076;2022-08-19T14:47:38;1.58;;;1.48;;
15228;SDS011;7717;47.792;12.076;2022-08-19T14:50:09;1.40;;;1.30;;